Rives Junction, MI (49277)

9:56 AM EDT on September 03, 2015 (GMT -0400)
PL-MI | | Change Station
CLOSE
Current Station
Personal Weather Station
Location: Pleasant Lake, MI
Elevation: 968 ft
Nearby Weather Stations

Elev 968 ft 42.38 °N, 84.36 °W | Updated 13 minutes ago

Clear
Clear
79.9 °F
Feels Like 84 °F
N
5.8
Wind Variable Wind from South

Today
High -- | Low -- °F
--% Chance of Precip.
Yesterday
High -- | Low -- °F
Precip. -- in
7:04 AM 8:08 PM
Waning Gibbous, 70% visible
Pressure 29.97 in
Visibility 7.0 miles
Clouds Scattered Clouds 12000 ft
Heat Index 84 °F
Dew Point 72 °F
Humidity 77%
Rainfall 0.00 in
Snow Depth Not available.
UV 1 out of 12
Pollen 8.40 out of 12
Air Quality Not available.
Flu Activity Not available.
METAR KJXN 031256Z 21005KT 7SM SCT120 23/21 A2998 RMK AO2 SLP147 T02330206
Pressure 29.97 in
Visibility 7.0 miles
Clouds Scattered Clouds 12000 ft
Heat Index 84 °F
Dew Point 72 °F
Humidity 77%
Rainfall 0.00 in
Snow Depth Not available.
UV 1 out of 12
Pollen 8.40 out of 12
Air Quality Not available.
Flu Activity Not available.
METAR KJXN 031256Z 21005KT 7SM SCT120 23/21 A2998 RMK AO2 SLP147 T02330206

10-Day Weather Forecast

×

Almanac

Astronomy

Sep. 03, 2015 Rise Set
Actual Time
Civil Twilight
Nautical Twilight
Astronomical Twilight
Moon
Length of Visible Light
Length of Day
Tomorrow will be .
, % of the Moon is Illuminated

Today's Extremes

State Highs State Lows

Community

WunderPhotos

Upload Photos

1,851,952 photos uploaded!

WunderBlogs® & News

Nearby

Air Quality

  Air Quality AQ Index Pollutant
Not available.

Snow Depth

Station Depth Elevation

Earthquake Activity

City Distance Mag. Time & Date
Minimum magnitude displayed is 2.5.

Coastal Water Temperatures

Place Temperature

Stations

Nearby Weather Stations

Station Location Temp. Windchill Dew Point Humidity Wind Precip. Elev Updated Type